sensor_id;sensor_type;location;lat;lon;timestamp;P1;durP1;ratioP1;P2;durP2;ratioP2
70253;SDS011;57649;42.968;1.608;2024-03-23T00:55:51;10.68;;;6.57;;
70253;SDS011;57649;42.968;1.608;2024-03-23T00:58:17;10.23;;;6.55;;
70253;SDS011;57649;42.968;1.608;2024-03-23T01:00:42;10.23;;;6.18;;
70253;SDS011;57649;42.968;1.608;2024-03-23T01:03:08;9.52;;;6.18;;
70253;SDS011;57649;42.968;1.608;2024-03-23T01:05:33;12.70;;;6.38;;
70253;SDS011;57649;42.968;1.608;2024-03-23T01:07:58;10.88;;;6.63;;
70253;SDS011;57649;42.968;1.608;2024-03-23T01:10:24;14.07;;;6.95;;
70253;SDS011;57649;42.968;1.608;2024-03-23T01:12:49;13.60;;;6.63;;
70253;SDS011;57649;42.968;1.608;2024-03-23T01:15:14;12.35;;;7.13;;
70253;SDS011;57649;42.968;1.608;2024-03-23T01:17:40;11.43;;;5.60;;
70253;SDS011;57649;42.968;1.608;2024-03-23T01:20:05;10.38;;;5.68;;
70253;SDS011;57649;42.968;1.608;2024-03-23T01:22:31;12.20;;;5.68;;
70253;SDS011;57649;42.968;1.608;2024-03-23T01:24:57;12.10;;;6.40;;
70253;SDS011;57649;42.968;1.608;2024-03-23T01:27:22;10.50;;;6.20;;
70253;SDS011;57649;42.968;1.608;2024-03-23T01:29:48;11.38;;;5.20;;
70253;SDS011;57649;42.968;1.608;2024-03-23T01:32:13;8.40;;;5.25;;
70253;SDS011;57649;42.968;1.608;2024-03-23T01:34:39;9.38;;;5.63;;
70253;SDS011;57649;42.968;1.608;2024-03-23T01:37:04;9.77;;;5.13;;
70253;SDS011;57649;42.968;1.608;2024-03-23T01:39:30;11.40;;;5.80;;
70253;SDS011;57649;42.968;1.608;2024-03-23T01:41:55;8.50;;;5.43;;
70253;SDS011;57649;42.968;1.608;2024-03-23T01:44:20;9.07;;;5.07;;
70253;SDS011;57649;42.968;1.608;2024-03-23T01:46:46;8.63;;;5.35;;
70253;SDS011;57649;42.968;1.608;2024-03-23T01:49:12;9.52;;;4.97;;
70253;SDS011;57649;42.968;1.608;2024-03-23T01:51:38;7.13;;;4.03;;
70253;SDS011;57649;42.968;1.608;2024-03-23T01:54:04;7.13;;;4.22;;
70253;SDS011;57649;42.968;1.608;2024-03-23T01:56:34;6.75;;;4.40;;
70253;SDS011;57649;42.968;1.608;2024-03-23T01:59:03;10.43;;;4.30;;
70253;SDS011;57649;42.968;1.608;2024-03-23T02:01:32;6.32;;;4.10;;
70253;SDS011;57649;42.968;1.608;2024-03-23T02:04:00;8.40;;;3.97;;
70253;SDS011;57649;42.968;1.608;2024-03-23T02:06:26;9.25;;;4.13;;
70253;SDS011;57649;42.968;1.608;2024-03-23T02:08:52;7.45;;;4.82;;
70253;SDS011;57649;42.968;1.608;2024-03-23T02:11:18;6.75;;;4.30;;
70253;SDS011;57649;42.968;1.608;2024-03-23T02:13:44;9.57;;;4.55;;
70253;SDS011;57649;42.968;1.608;2024-03-23T02:16:09;9.70;;;4.30;;
70253;SDS011;57649;42.968;1.608;2024-03-23T02:18:35;8.52;;;4.78;;
70253;SDS011;57649;42.968;1.608;2024-03-23T02:21:00;8.63;;;4.70;;
70253;SDS011;57649;42.968;1.608;2024-03-23T02:23:26;10.23;;;5.00;;
70253;SDS011;57649;42.968;1.608;2024-03-23T02:25:51;10.48;;;5.20;;
70253;SDS011;57649;42.968;1.608;2024-03-23T02:28:18;13.07;;;5.88;;
70253;SDS011;57649;42.968;1.608;2024-03-23T02:30:43;8.65;;;5.53;;
70253;SDS011;57649;42.968;1.608;2024-03-23T02:33:09;7.80;;;4.90;;
70253;SDS011;57649;42.968;1.608;2024-03-23T02:35:34;14.48;;;5.28;;
70253;SDS011;57649;42.968;1.608;2024-03-23T02:38:00;11.05;;;5.18;;
70253;SDS011;57649;42.968;1.608;2024-03-23T02:40:25;10.18;;;5.25;;
70253;SDS011;57649;42.968;1.608;2024-03-23T02:42:51;10.00;;;5.45;;
70253;SDS011;57649;42.968;1.608;2024-03-23T02:45:17;8.93;;;5.18;;
70253;SDS011;57649;42.968;1.608;2024-03-23T02:47:43;8.80;;;4.97;;
70253;SDS011;57649;42.968;1.608;2024-03-23T02:50:08;7.97;;;4.78;;
70253;SDS011;57649;42.968;1.608;2024-03-23T02:52:36;10.13;;;4.80;;
70253;SDS011;57649;42.968;1.608;2024-03-23T02:55:02;11.95;;;5.32;;
70253;SDS011;57649;42.968;1.608;2024-03-23T02:57:28;9.60;;;4.70;;
70253;SDS011;57649;42.968;1.608;2024-03-23T02:59:54;7.63;;;4.20;;
70253;SDS011;57649;42.968;1.608;2024-03-23T03:02:20;8.43;;;4.50;;
70253;SDS011;57649;42.968;1.608;2024-03-23T03:04:46;7.55;;;4.05;;
70253;SDS011;57649;42.968;1.608;2024-03-23T03:07:11;5.63;;;3.75;;
70253;SDS011;57649;42.968;1.608;2024-03-23T03:09:36;5.75;;;4.28;;
70253;SDS011;57649;42.968;1.608;2024-03-23T03:12:04;6.32;;;3.95;;
70253;SDS011;57649;42.968;1.608;2024-03-23T03:14:30;7.60;;;4.03;;
70253;SDS011;57649;42.968;1.608;2024-03-23T03:16:56;6.22;;;4.18;;
70253;SDS011;57649;42.968;1.608;2024-03-23T03:19:21;6.10;;;3.90;;
70253;SDS011;57649;42.968;1.608;2024-03-23T03:21:47;4.95;;;3.08;;
70253;SDS011;57649;42.968;1.608;2024-03-23T03:24:12;8.07;;;3.45;;
70253;SDS011;57649;42.968;1.608;2024-03-23T03:26:38;5.40;;;3.28;;
70253;SDS011;57649;42.968;1.608;2024-03-23T03:29:04;4.43;;;3.25;;
70253;SDS011;57649;42.968;1.608;2024-03-23T03:31:29;8.18;;;3.33;;
70253;SDS011;57649;42.968;1.608;2024-03-23T03:33:54;6.10;;;2.97;;
70253;SDS011;57649;42.968;1.608;2024-03-23T03:36:20;6.45;;;2.80;;
70253;SDS011;57649;42.968;1.608;2024-03-23T03:38:46;4.88;;;2.72;;
70253;SDS011;57649;42.968;1.608;2024-03-23T03:41:11;3.80;;;2.53;;
70253;SDS011;57649;42.968;1.608;2024-03-23T03:43:36;4.55;;;2.70;;
70253;SDS011;57649;42.968;1.608;2024-03-23T03:46:03;2.97;;;2.22;;
70253;SDS011;57649;42.968;1.608;2024-03-23T03:48:28;3.50;;;2.42;;
70253;SDS011;57649;42.968;1.608;2024-03-23T03:50:54;4.30;;;2.63;;
70253;SDS011;57649;42.968;1.608;2024-03-23T03:53:19;4.85;;;2.50;;
70253;SDS011;57649;42.968;1.608;2024-03-23T03:55:45;4.68;;;1.92;;
70253;SDS011;57649;42.968;1.608;2024-03-23T03:58:10;3.00;;;1.70;;
70253;SDS011;57649;42.968;1.608;2024-03-23T04:00:36;4.57;;;2.00;;
70253;SDS011;57649;42.968;1.608;2024-03-23T04:03:01;5.18;;;1.83;;
70253;SDS011;57649;42.968;1.608;2024-03-23T04:05:27;2.65;;;1.55;;
70253;SDS011;57649;42.968;1.608;2024-03-23T04:07:52;2.45;;;1.70;;
70253;SDS011;57649;42.968;1.608;2024-03-23T04:10:19;4.28;;;2.03;;
70253;SDS011;57649;42.968;1.608;2024-03-23T04:12:44;4.95;;;2.30;;
70253;SDS011;57649;42.968;1.608;2024-03-23T04:15:10;6.18;;;2.17;;
70253;SDS011;57649;42.968;1.608;2024-03-23T04:17:36;2.85;;;1.92;;
70253;SDS011;57649;42.968;1.608;2024-03-23T04:20:01;4.72;;;2.53;;
70253;SDS011;57649;42.968;1.608;2024-03-23T04:22:28;7.50;;;2.60;;
70253;SDS011;57649;42.968;1.608;2024-03-23T04:24:56;3.70;;;2.30;;
70253;SDS011;57649;42.968;1.608;2024-03-23T04:27:25;4.82;;;2.45;;
70253;SDS011;57649;42.968;1.608;2024-03-23T04:29:50;4.00;;;2.45;;
70253;SDS011;57649;42.968;1.608;2024-03-23T04:32:16;3.42;;;2.58;;
70253;SDS011;57649;42.968;1.608;2024-03-23T04:34:43;3.92;;;2.22;;
70253;SDS011;57649;42.968;1.608;2024-03-23T04:37:09;6.63;;;2.72;;
70253;SDS011;57649;42.968;1.608;2024-03-23T04:39:38;4.68;;;2.90;;
70253;SDS011;57649;42.968;1.608;2024-03-23T04:42:04;3.53;;;2.38;;
70253;SDS011;57649;42.968;1.608;2024-03-23T04:44:30;5.85;;;2.20;;
70253;SDS011;57649;42.968;1.608;2024-03-23T04:46:56;4.22;;;2.40;;
70253;SDS011;57649;42.968;1.608;2024-03-23T04:49:25;6.88;;;2.20;;
70253;SDS011;57649;42.968;1.608;2024-03-23T04:51:51;3.65;;;2.20;;
70253;SDS011;57649;42.968;1.608;2024-03-23T04:54:16;3.17;;;2.08;;
70253;SDS011;57649;42.968;1.608;2024-03-23T04:56:41;5.47;;;2.20;;
70253;SDS011;57649;42.968;1.608;2024-03-23T04:59:07;7.65;;;2.80;;
70253;SDS011;57649;42.968;1.608;2024-03-23T05:01:32;4.50;;;2.40;;
70253;SDS011;57649;42.968;1.608;2024-03-23T05:03:58;7.68;;;2.55;;
70253;SDS011;57649;42.968;1.608;2024-03-23T05:06:23;4.65;;;2.85;;
70253;SDS011;57649;42.968;1.608;2024-03-23T05:08:50;4.00;;;2.17;;
70253;SDS011;57649;42.968;1.608;2024-03-23T05:11:16;6.70;;;2.53;;
70253;SDS011;57649;42.968;1.608;2024-03-23T05:13:42;5.47;;;2.67;;
70253;SDS011;57649;42.968;1.608;2024-03-23T05:16:07;7.88;;;2.97;;
70253;SDS011;57649;42.968;1.608;2024-03-23T05:18:33;5.43;;;2.65;;
70253;SDS011;57649;42.968;1.608;2024-03-23T05:20:59;6.13;;;2.90;;
70253;SDS011;57649;42.968;1.608;2024-03-23T05:23:25;7.80;;;3.60;;
70253;SDS011;57649;42.968;1.608;2024-03-23T05:25:50;7.05;;;4.40;;
70253;SDS011;57649;42.968;1.608;2024-03-23T05:28:17;6.82;;;4.50;;
70253;SDS011;57649;42.968;1.608;2024-03-23T05:30:43;9.25;;;4.68;;
70253;SDS011;57649;42.968;1.608;2024-03-23T05:33:08;7.20;;;4.68;;
70253;SDS011;57649;42.968;1.608;2024-03-23T05:35:34;10.65;;;4.90;;
70253;SDS011;57649;42.968;1.608;2024-03-23T05:37:59;10.00;;;4.82;;
70253;SDS011;57649;42.968;1.608;2024-03-23T05:40:25;9.90;;;4.57;;
70253;SDS011;57649;42.968;1.608;2024-03-23T05:42:51;10.10;;;4.93;;
70253;SDS011;57649;42.968;1.608;2024-03-23T05:45:20;8.02;;;5.28;;
70253;SDS011;57649;42.968;1.608;2024-03-23T05:47:47;9.23;;;5.00;;
70253;SDS011;57649;42.968;1.608;2024-03-23T05:50:13;12.68;;;5.65;;
70253;SDS011;57649;42.968;1.608;2024-03-23T05:52:38;8.52;;;5.10;;
70253;SDS011;57649;42.968;1.608;2024-03-23T05:55:05;10.00;;;5.05;;
70253;SDS011;57649;42.968;1.608;2024-03-23T05:57:31;10.93;;;4.78;;
70253;SDS011;57649;42.968;1.608;2024-03-23T05:59:56;10.60;;;5.10;;
70253;SDS011;57649;42.968;1.608;2024-03-23T06:02:22;10.38;;;5.68;;
70253;SDS011;57649;42.968;1.608;2024-03-23T06:04:48;8.27;;;4.97;;
70253;SDS011;57649;42.968;1.608;2024-03-23T06:07:13;10.63;;;5.05;;
70253;SDS011;57649;42.968;1.608;2024-03-23T06:09:40;9.57;;;4.90;;
70253;SDS011;57649;42.968;1.608;2024-03-23T06:12:06;8.32;;;4.78;;
70253;SDS011;57649;42.968;1.608;2024-03-23T06:14:31;8.38;;;5.18;;
70253;SDS011;57649;42.968;1.608;2024-03-23T06:16:58;10.75;;;5.28;;
70253;SDS011;57649;42.968;1.608;2024-03-23T06:22:41;10.52;;;5.00;;
70253;SDS011;57649;42.968;1.608;2024-03-23T06:25:12;8.82;;;4.30;;
70253;SDS011;57649;42.968;1.608;2024-03-23T06:27:53;7.97;;;4.00;;
70253;SDS011;57649;42.968;1.608;2024-03-23T06:30:28;10.25;;;4.97;;
70253;SDS011;57649;42.968;1.608;2024-03-23T06:33:05;9.68;;;4.55;;
70253;SDS011;57649;42.968;1.608;2024-03-23T06:35:33;9.50;;;4.22;;
70253;SDS011;57649;42.968;1.608;2024-03-23T06:38:03;7.40;;;4.35;;
70253;SDS011;57649;42.968;1.608;2024-03-23T06:40:40;10.07;;;4.45;;
70253;SDS011;57649;42.968;1.608;2024-03-23T06:43:15;8.13;;;4.40;;
70253;SDS011;57649;42.968;1.608;2024-03-23T06:46:06;8.35;;;3.95;;
70253;SDS011;57649;42.968;1.608;2024-03-23T06:48:42;7.72;;;4.20;;
70253;SDS011;57649;42.968;1.608;2024-03-23T06:54:12;6.93;;;4.22;;
70253;SDS011;57649;42.968;1.608;2024-03-23T06:56:47;10.85;;;4.43;;
70253;SDS011;57649;42.968;1.608;2024-03-23T06:59:21;4.65;;;3.70;;
70253;SDS011;57649;42.968;1.608;2024-03-23T07:01:49;10.40;;;3.80;;
70253;SDS011;57649;42.968;1.608;2024-03-23T07:04:35;11.07;;;4.05;;
70253;SDS011;57649;42.968;1.608;2024-03-23T07:07:13;9.63;;;3.85;;
70253;SDS011;57649;42.968;1.608;2024-03-23T07:09:39;9.90;;;4.30;;
70253;SDS011;57649;42.968;1.608;2024-03-23T07:12:05;8.75;;;3.83;;
70253;SDS011;57649;42.968;1.608;2024-03-23T07:14:49;10.67;;;4.07;;
70253;SDS011;57649;42.968;1.608;2024-03-23T07:20:17;10.20;;;3.83;;
70253;SDS011;57649;42.968;1.608;2024-03-23T07:23:02;6.45;;;3.33;;
70253;SDS011;57649;42.968;1.608;2024-03-23T07:25:43;8.23;;;3.38;;
70253;SDS011;57649;42.968;1.608;2024-03-23T07:28:38;8.48;;;3.40;;
70253;SDS011;57649;42.968;1.608;2024-03-23T07:31:11;12.65;;;4.13;;
70253;SDS011;57649;42.968;1.608;2024-03-23T07:37:06;9.57;;;4.80;;
70253;SDS011;57649;42.968;1.608;2024-03-23T07:39:32;23.45;;;14.32;;
70253;SDS011;57649;42.968;1.608;2024-03-23T07:41:59;8.57;;;6.00;;
70253;SDS011;57649;42.968;1.608;2024-03-23T07:44:24;7.25;;;3.30;;
70253;SDS011;57649;42.968;1.608;2024-03-23T07:46:50;10.93;;;4.65;;
70253;SDS011;57649;42.968;1.608;2024-03-23T07:49:15;12.13;;;8.15;;
70253;SDS011;57649;42.968;1.608;2024-03-23T07:51:40;6.95;;;2.88;;
70253;SDS011;57649;42.968;1.608;2024-03-23T07:54:06;4.75;;;2.50;;
70253;SDS011;57649;42.968;1.608;2024-03-23T07:56:31;8.40;;;3.00;;
70253;SDS011;57649;42.968;1.608;2024-03-23T07:58:57;6.28;;;2.95;;
70253;SDS011;57649;42.968;1.608;2024-03-23T08:01:22;3.90;;;2.75;;
70253;SDS011;57649;42.968;1.608;2024-03-23T08:03:49;5.35;;;2.60;;
70253;SDS011;57649;42.968;1.608;2024-03-23T08:06:15;4.97;;;2.90;;
70253;SDS011;57649;42.968;1.608;2024-03-23T08:08:42;16.58;;;7.60;;
70253;SDS011;57649;42.968;1.608;2024-03-23T08:11:09;4.05;;;2.20;;
70253;SDS011;57649;42.968;1.608;2024-03-23T08:13:35;7.07;;;2.55;;
70253;SDS011;57649;42.968;1.608;2024-03-23T08:16:02;4.65;;;2.13;;
70253;SDS011;57649;42.968;1.608;2024-03-23T08:18:28;4.60;;;2.17;;
70253;SDS011;57649;42.968;1.608;2024-03-23T08:20:57;4.00;;;1.80;;
70253;SDS011;57649;42.968;1.608;2024-03-23T08:23:27;3.17;;;2.03;;
70253;SDS011;57649;42.968;1.608;2024-03-23T08:26:00;3.55;;;2.28;;
70253;SDS011;57649;42.968;1.608;2024-03-23T08:28:27;4.22;;;2.17;;
70253;SDS011;57649;42.968;1.608;2024-03-23T08:30:53;4.03;;;1.70;;
70253;SDS011;57649;42.968;1.608;2024-03-23T08:33:19;3.20;;;1.67;;
70253;SDS011;57649;42.968;1.608;2024-03-23T08:35:54;3.38;;;1.70;;
70253;SDS011;57649;42.968;1.608;2024-03-23T08:38:21;3.90;;;1.60;;
70253;SDS011;57649;42.968;1.608;2024-03-23T08:40:47;3.08;;;1.80;;
70253;SDS011;57649;42.968;1.608;2024-03-23T08:43:12;4.55;;;2.00;;
70253;SDS011;57649;42.968;1.608;2024-03-23T08:45:38;2.60;;;1.40;;
70253;SDS011;57649;42.968;1.608;2024-03-23T08:48:03;3.95;;;1.70;;
70253;SDS011;57649;42.968;1.608;2024-03-23T08:50:29;2.58;;;1.23;;
70253;SDS011;57649;42.968;1.608;2024-03-23T08:52:54;3.75;;;1.80;;
70253;SDS011;57649;42.968;1.608;2024-03-23T08:55:20;3.97;;;1.77;;
70253;SDS011;57649;42.968;1.608;2024-03-23T08:57:45;3.97;;;1.88;;
70253;SDS011;57649;42.968;1.608;2024-03-23T09:00:10;5.68;;;2.10;;
70253;SDS011;57649;42.968;1.608;2024-03-23T09:02:36;3.95;;;1.60;;
70253;SDS011;57649;42.968;1.608;2024-03-23T09:05:02;6.35;;;2.03;;
70253;SDS011;57649;42.968;1.608;2024-03-23T09:07:32;4.18;;;1.73;;
70253;SDS011;57649;42.968;1.608;2024-03-23T09:09:57;4.53;;;2.20;;
70253;SDS011;57649;42.968;1.608;2024-03-23T09:12:23;4.50;;;1.85;;
70253;SDS011;57649;42.968;1.608;2024-03-23T09:14:49;3.97;;;1.88;;
70253;SDS011;57649;42.968;1.608;2024-03-23T09:17:15;4.50;;;1.63;;
70253;SDS011;57649;42.968;1.608;2024-03-23T09:19:43;5.82;;;2.50;;
70253;SDS011;57649;42.968;1.608;2024-03-23T09:22:08;3.45;;;1.80;;
70253;SDS011;57649;42.968;1.608;2024-03-23T09:24:34;5.22;;;1.73;;
70253;SDS011;57649;42.968;1.608;2024-03-23T09:26:59;3.47;;;1.45;;
70253;SDS011;57649;42.968;1.608;2024-03-23T09:29:30;4.43;;;2.45;;
70253;SDS011;57649;42.968;1.608;2024-03-23T09:31:56;5.82;;;2.28;;
70253;SDS011;57649;42.968;1.608;2024-03-23T09:34:21;3.28;;;2.20;;
70253;SDS011;57649;42.968;1.608;2024-03-23T09:36:50;5.00;;;2.42;;
70253;SDS011;57649;42.968;1.608;2024-03-23T09:39:16;3.27;;;1.80;;
70253;SDS011;57649;42.968;1.608;2024-03-23T09:41:42;3.55;;;1.85;;
70253;SDS011;57649;42.968;1.608;2024-03-23T09:44:07;2.28;;;1.52;;
70253;SDS011;57649;42.968;1.608;2024-03-23T09:46:33;3.20;;;1.92;;
70253;SDS011;57649;42.968;1.608;2024-03-23T09:49:01;2.17;;;1.40;;
70253;SDS011;57649;42.968;1.608;2024-03-23T09:51:31;2.63;;;1.33;;
70253;SDS011;57649;42.968;1.608;2024-03-23T09:53:56;2.70;;;1.23;;
70253;SDS011;57649;42.968;1.608;2024-03-23T09:56:22;4.00;;;1.60;;
70253;SDS011;57649;42.968;1.608;2024-03-23T09:58:48;3.42;;;1.90;;
70253;SDS011;57649;42.968;1.608;2024-03-23T10:01:14;3.72;;;1.60;;
70253;SDS011;57649;42.968;1.608;2024-03-23T10:03:45;4.38;;;1.60;;
70253;SDS011;57649;42.968;1.608;2024-03-23T10:06:11;5.75;;;2.13;;
70253;SDS011;57649;42.968;1.608;2024-03-23T10:08:36;5.20;;;2.22;;
70253;SDS011;57649;42.968;1.608;2024-03-23T10:11:15;2.45;;;1.48;;
70253;SDS011;57649;42.968;1.608;2024-03-23T10:13:42;6.38;;;1.50;;
70253;SDS011;57649;42.968;1.608;2024-03-23T10:16:08;3.25;;;1.30;;
70253;SDS011;57649;42.968;1.608;2024-03-23T10:18:38;5.90;;;2.58;;
70253;SDS011;57649;42.968;1.608;2024-03-23T10:23:33;2.53;;;0.87;;
70253;SDS011;57649;42.968;1.608;2024-03-23T10:31:16;2.30;;;1.08;;
70253;SDS011;57649;42.968;1.608;2024-03-23T10:33:45;3.83;;;1.30;;
70253;SDS011;57649;42.968;1.608;2024-03-23T10:36:11;3.05;;;1.85;;
70253;SDS011;57649;42.968;1.608;2024-03-23T10:38:47;2.38;;;1.42;;
70253;SDS011;57649;42.968;1.608;2024-03-23T10:41:18;3.20;;;1.55;;
70253;SDS011;57649;42.968;1.608;2024-03-23T10:43:47;1.77;;;1.15;;
70253;SDS011;57649;42.968;1.608;2024-03-23T10:46:13;4.68;;;1.10;;
70253;SDS011;57649;42.968;1.608;2024-03-23T10:48:39;2.20;;;1.60;;
70253;SDS011;57649;42.968;1.608;2024-03-23T10:51:07;1.20;;;1.10;;
70253;SDS011;57649;42.968;1.608;2024-03-23T10:53:38;3.60;;;1.63;;
70253;SDS011;57649;42.968;1.608;2024-03-23T10:56:04;2.78;;;1.60;;
70253;SDS011;57649;42.968;1.608;2024-03-23T10:58:44;3.53;;;2.20;;
70253;SDS011;57649;42.968;1.608;2024-03-23T11:01:13;2.08;;;1.42;;
70253;SDS011;57649;42.968;1.608;2024-03-23T11:03:39;2.60;;;1.58;;
70253;SDS011;57649;42.968;1.608;2024-03-23T11:06:10;1.83;;;1.10;;
70253;SDS011;57649;42.968;1.608;2024-03-23T11:08:39;1.90;;;1.20;;
70253;SDS011;57649;42.968;1.608;2024-03-23T11:13:53;3.28;;;1.70;;
70253;SDS011;57649;42.968;1.608;2024-03-23T11:16:23;2.92;;;1.20;;
70253;SDS011;57649;42.968;1.608;2024-03-23T11:18:50;3.10;;;1.60;;
70253;SDS011;57649;42.968;1.608;2024-03-23T11:24:20;1.48;;;1.10;;
70253;SDS011;57649;42.968;1.608;2024-03-23T11:26:46;1.40;;;1.08;;
70253;SDS011;57649;42.968;1.608;2024-03-23T11:29:13;1.67;;;1.10;;
70253;SDS011;57649;42.968;1.608;2024-03-23T11:31:48;3.38;;;1.33;;
70253;SDS011;57649;42.968;1.608;2024-03-23T11:34:18;1.70;;;0.98;;
70253;SDS011;57649;42.968;1.608;2024-03-23T11:36:44;1.63;;;1.13;;
70253;SDS011;57649;42.968;1.608;2024-03-23T11:39:15;3.53;;;1.25;;
70253;SDS011;57649;42.968;1.608;2024-03-23T11:41:51;2.58;;;1.15;;
70253;SDS011;57649;42.968;1.608;2024-03-23T11:44:18;2.42;;;1.10;;
70253;SDS011;57649;42.968;1.608;2024-03-23T11:46:45;1.65;;;0.88;;
70253;SDS011;57649;42.968;1.608;2024-03-23T11:49:27;2.28;;;1.13;;
70253;SDS011;57649;42.968;1.608;2024-03-23T11:51:54;4.93;;;3.08;;
70253;SDS011;57649;42.968;1.608;2024-03-23T11:54:21;2.28;;;1.58;;
70253;SDS011;57649;42.968;1.608;2024-03-23T11:56:56;3.83;;;1.60;;
70253;SDS011;57649;42.968;1.608;2024-03-23T11:59:33;1.95;;;1.13;;
70253;SDS011;57649;42.968;1.608;2024-03-23T12:02:00;3.03;;;1.23;;
70253;SDS011;57649;42.968;1.608;2024-03-23T12:04:30;1.30;;;0.73;;
70253;SDS011;57649;42.968;1.608;2024-03-23T12:09:45;0.80;;;0.60;;
70253;SDS011;57649;42.968;1.608;2024-03-23T12:14:43;0.88;;;0.70;;
70253;SDS011;57649;42.968;1.608;2024-03-23T12:19:36;1.30;;;0.80;;
70253;SDS011;57649;42.968;1.608;2024-03-23T12:22:04;2.42;;;1.08;;
70253;SDS011;57649;42.968;1.608;2024-03-23T12:24:36;1.60;;;0.80;;
70253;SDS011;57649;42.968;1.608;2024-03-23T12:29:30;1.50;;;0.82;;
70253;SDS011;57649;42.968;1.608;2024-03-23T12:32:00;2.65;;;1.00;;
70253;SDS011;57649;42.968;1.608;2024-03-23T12:34:26;1.90;;;0.80;;
70253;SDS011;57649;42.968;1.608;2024-03-23T12:36:53;1.30;;;0.85;;
70253;SDS011;57649;42.968;1.608;2024-03-23T12:39:18;3.40;;;2.00;;
70253;SDS011;57649;42.968;1.608;2024-03-23T12:41:45;1.95;;;1.15;;
70253;SDS011;57649;42.968;1.608;2024-03-23T12:44:11;1.92;;;1.15;;
70253;SDS011;57649;42.968;1.608;2024-03-23T12:46:37;2.13;;;0.90;;
70253;SDS011;57649;42.968;1.608;2024-03-23T12:49:03;4.13;;;0.90;;
70253;SDS011;57649;42.968;1.608;2024-03-23T12:51:28;3.17;;;1.05;;
70253;SDS011;57649;42.968;1.608;2024-03-23T12:53:54;3.22;;;1.63;;
70253;SDS011;57649;42.968;1.608;2024-03-23T12:56:19;1.50;;;0.98;;
70253;SDS011;57649;42.968;1.608;2024-03-23T12:58:45;2.25;;;1.10;;
70253;SDS011;57649;42.968;1.608;2024-03-23T13:01:10;4.32;;;1.20;;
70253;SDS011;57649;42.968;1.608;2024-03-23T13:03:35;3.30;;;1.10;;
70253;SDS011;57649;42.968;1.608;2024-03-23T13:06:01;2.38;;;1.02;;
70253;SDS011;57649;42.968;1.608;2024-03-23T13:08:29;4.55;;;2.50;;
70253;SDS011;57649;42.968;1.608;2024-03-23T13:10:55;7.15;;;3.42;;
70253;SDS011;57649;42.968;1.608;2024-03-23T13:13:20;5.05;;;1.77;;
70253;SDS011;57649;42.968;1.608;2024-03-23T13:15:49;2.45;;;1.10;;
70253;SDS011;57649;42.968;1.608;2024-03-23T13:18:15;3.55;;;1.30;;
70253;SDS011;57649;42.968;1.608;2024-03-23T13:20:48;2.47;;;0.98;;
70253;SDS011;57649;42.968;1.608;2024-03-23T13:23:13;4.20;;;1.10;;
70253;SDS011;57649;42.968;1.608;2024-03-23T13:25:38;4.63;;;1.25;;
70253;SDS011;57649;42.968;1.608;2024-03-23T13:28:04;2.60;;;1.20;;
70253;SDS011;57649;42.968;1.608;2024-03-23T13:30:30;4.53;;;1.70;;
70253;SDS011;57649;42.968;1.608;2024-03-23T13:32:55;3.95;;;1.38;;
70253;SDS011;57649;42.968;1.608;2024-03-23T13:35:20;3.38;;;1.70;;
70253;SDS011;57649;42.968;1.608;2024-03-23T13:37:46;4.03;;;1.60;;
70253;SDS011;57649;42.968;1.608;2024-03-23T13:40:12;2.78;;;1.27;;
70253;SDS011;57649;42.968;1.608;2024-03-23T13:42:37;6.70;;;1.85;;
70253;SDS011;57649;42.968;1.608;2024-03-23T13:45:03;3.60;;;1.45;;
70253;SDS011;57649;42.968;1.608;2024-03-23T13:47:29;5.63;;;1.73;;
70253;SDS011;57649;42.968;1.608;2024-03-23T13:49:54;5.32;;;1.40;;
70253;SDS011;57649;42.968;1.608;2024-03-23T13:52:21;3.17;;;1.40;;
70253;SDS011;57649;42.968;1.608;2024-03-23T13:54:48;3.00;;;1.27;;
70253;SDS011;57649;42.968;1.608;2024-03-23T13:57:13;3.83;;;1.52;;
70253;SDS011;57649;42.968;1.608;2024-03-23T13:59:39;4.22;;;1.30;;
70253;SDS011;57649;42.968;1.608;2024-03-23T14:02:04;3.83;;;1.48;;
70253;SDS011;57649;42.968;1.608;2024-03-23T14:04:30;6.07;;;1.60;;
70253;SDS011;57649;42.968;1.608;2024-03-23T14:06:56;5.60;;;1.20;;
70253;SDS011;57649;42.968;1.608;2024-03-23T14:09:21;2.95;;;1.30;;
70253;SDS011;57649;42.968;1.608;2024-03-23T14:11:50;3.83;;;1.27;;
70253;SDS011;57649;42.968;1.608;2024-03-23T14:14:16;4.05;;;1.90;;
70253;SDS011;57649;42.968;1.608;2024-03-23T14:16:42;3.33;;;2.15;;
70253;SDS011;57649;42.968;1.608;2024-03-23T14:19:10;2.75;;;1.40;;
70253;SDS011;57649;42.968;1.608;2024-03-23T14:21:35;3.58;;;1.20;;
70253;SDS011;57649;42.968;1.608;2024-03-23T14:24:01;2.88;;;1.30;;
70253;SDS011;57649;42.968;1.608;2024-03-23T14:26:27;2.75;;;1.33;;
70253;SDS011;57649;42.968;1.608;2024-03-23T14:28:53;3.25;;;1.50;;
70253;SDS011;57649;42.968;1.608;2024-03-23T14:31:18;4.55;;;2.10;;
70253;SDS011;57649;42.968;1.608;2024-03-23T14:33:44;2.63;;;1.13;;
70253;SDS011;57649;42.968;1.608;2024-03-23T14:36:13;5.95;;;1.25;;
70253;SDS011;57649;42.968;1.608;2024-03-23T14:38:39;4.93;;;1.40;;
70253;SDS011;57649;42.968;1.608;2024-03-23T14:41:06;6.43;;;1.80;;
70253;SDS011;57649;42.968;1.608;2024-03-23T14:43:32;3.75;;;1.40;;
70253;SDS011;57649;42.968;1.608;2024-03-23T14:46:07;4.50;;;1.42;;
70253;SDS011;57649;42.968;1.608;2024-03-23T14:48:37;3.70;;;1.10;;
70253;SDS011;57649;42.968;1.608;2024-03-23T14:51:14;4.65;;;1.30;;
70253;SDS011;57649;42.968;1.608;2024-03-23T14:53:40;5.88;;;1.45;;
70253;SDS011;57649;42.968;1.608;2024-03-23T14:56:06;2.67;;;1.38;;
70253;SDS011;57649;42.968;1.608;2024-03-23T14:58:33;2.70;;;1.30;;
70253;SDS011;57649;42.968;1.608;2024-03-23T15:01:05;3.95;;;1.67;;
70253;SDS011;57649;42.968;1.608;2024-03-23T15:03:35;4.07;;;1.63;;
70253;SDS011;57649;42.968;1.608;2024-03-23T15:06:08;4.63;;;1.67;;
70253;SDS011;57649;42.968;1.608;2024-03-23T15:08:36;4.80;;;2.00;;
70253;SDS011;57649;42.968;1.608;2024-03-23T15:11:03;5.38;;;2.83;;
70253;SDS011;57649;42.968;1.608;2024-03-23T15:13:35;3.63;;;1.42;;
70253;SDS011;57649;42.968;1.608;2024-03-23T15:16:01;6.38;;;1.77;;
70253;SDS011;57649;42.968;1.608;2024-03-23T15:18:30;3.30;;;1.80;;
70253;SDS011;57649;42.968;1.608;2024-03-23T15:21:01;3.10;;;1.60;;
70253;SDS011;57649;42.968;1.608;2024-03-23T15:23:28;5.47;;;1.55;;
70253;SDS011;57649;42.968;1.608;2024-03-23T15:25:54;3.33;;;2.03;;
70253;SDS011;57649;42.968;1.608;2024-03-23T15:28:21;4.25;;;1.52;;
70253;SDS011;57649;42.968;1.608;2024-03-23T15:30:52;3.35;;;1.80;;
70253;SDS011;57649;42.968;1.608;2024-03-23T15:33:17;4.72;;;1.95;;
70253;SDS011;57649;42.968;1.608;2024-03-23T15:35:43;7.10;;;1.45;;
70253;SDS011;57649;42.968;1.608;2024-03-23T15:38:08;3.75;;;1.52;;
70253;SDS011;57649;42.968;1.608;2024-03-23T15:40:34;3.50;;;1.30;;
70253;SDS011;57649;42.968;1.608;2024-03-23T15:43:00;6.07;;;1.80;;
70253;SDS011;57649;42.968;1.608;2024-03-23T15:45:26;6.80;;;1.95;;
70253;SDS011;57649;42.968;1.608;2024-03-23T15:47:51;4.22;;;1.70;;
70253;SDS011;57649;42.968;1.608;2024-03-23T15:50:17;3.10;;;1.30;;
70253;SDS011;57649;42.968;1.608;2024-03-23T15:52:42;5.10;;;1.55;;
70253;SDS011;57649;42.968;1.608;2024-03-23T15:55:08;2.80;;;1.50;;
70253;SDS011;57649;42.968;1.608;2024-03-23T15:57:53;8.57;;;1.75;;
70253;SDS011;57649;42.968;1.608;2024-03-23T16:01:17;7.65;;;2.80;;
70253;SDS011;57649;42.968;1.608;2024-03-23T16:03:46;3.90;;;2.25;;
70253;SDS011;57649;42.968;1.608;2024-03-23T16:06:12;6.38;;;2.35;;
70253;SDS011;57649;42.968;1.608;2024-03-23T16:08:37;5.32;;;2.08;;
70253;SDS011;57649;42.968;1.608;2024-03-23T16:11:04;5.40;;;2.50;;
70253;SDS011;57649;42.968;1.608;2024-03-23T16:13:30;6.90;;;3.40;;
70253;SDS011;57649;42.968;1.608;2024-03-23T16:16:00;6.47;;;2.97;;
70253;SDS011;57649;42.968;1.608;2024-03-23T16:18:28;7.30;;;2.70;;